createdAt,value
2019-05-26T00:02:00.000Z,98602
2019-05-26T00:07:00.000Z,98612
2019-05-26T00:12:00.000Z,98594
2019-05-26T00:17:00.000Z,98591
2019-05-26T00:22:00.000Z,98591
2019-05-26T00:27:00.000Z,98581
2019-05-26T00:32:00.000Z,98585
2019-05-26T00:37:00.000Z,98588
2019-05-26T00:42:00.000Z,98594
2019-05-26T00:47:00.000Z,98593
2019-05-26T00:52:00.000Z,98596
2019-05-26T00:57:00.000Z,98593
2019-05-26T01:02:00.000Z,98595
2019-05-26T01:07:00.000Z,98597
2019-05-26T01:13:00.000Z,98598
2019-05-26T01:18:00.000Z,98600
2019-05-26T01:23:00.000Z,98596
2019-05-26T01:28:00.000Z,98591
2019-05-26T01:33:00.000Z,98595
2019-05-26T01:38:00.000Z,98604
2019-05-26T01:43:00.000Z,98609
2019-05-26T01:48:00.000Z,98610
2019-05-26T01:53:00.000Z,98600
2019-05-26T01:58:00.000Z,98608
2019-05-26T02:03:00.000Z,98612
2019-05-26T02:08:00.000Z,98607
2019-05-26T02:13:00.000Z,98609
2019-05-26T02:18:00.000Z,98602
2019-05-26T02:23:00.000Z,98615
2019-05-26T02:28:00.000Z,98614
2019-05-26T02:33:00.000Z,98605
2019-05-26T02:38:00.000Z,98609
2019-05-26T02:44:00.000Z,98614
2019-05-26T02:49:00.000Z,98612
2019-05-26T02:54:00.000Z,98609
2019-05-26T02:59:00.000Z,98606
2019-05-26T03:04:00.000Z,98615
2019-05-26T03:09:00.000Z,98602
2019-05-26T03:14:00.000Z,98606
2019-05-26T03:19:00.000Z,98609
2019-05-26T03:24:00.000Z,98614
2019-05-26T03:29:00.000Z,98618
2019-05-26T03:34:00.000Z,98614
2019-05-26T03:39:00.000Z,98622
2019-05-26T03:44:00.000Z,98616
2019-05-26T03:49:00.000Z,98628
2019-05-26T03:54:00.000Z,98622
2019-05-26T03:59:00.000Z,98631
2019-05-26T04:04:00.000Z,98637
2019-05-26T04:09:00.000Z,98648
2019-05-26T04:15:00.000Z,98647
2019-05-26T04:20:00.000Z,98640
2019-05-26T04:25:00.000Z,98657
2019-05-26T04:30:00.000Z,98657
2019-05-26T04:35:00.000Z,98662
2019-05-26T04:40:00.000Z,98653
2019-05-26T04:45:00.000Z,98654
2019-05-26T04:50:00.000Z,98668
2019-05-26T04:55:00.000Z,98662
2019-05-26T05:00:00.000Z,98662
2019-05-26T05:05:00.000Z,98663
2019-05-26T05:10:00.000Z,98669
2019-05-26T05:15:00.000Z,98670
2019-05-26T05:20:00.000Z,98673
2019-05-26T05:25:00.000Z,98664
2019-05-26T05:30:00.000Z,98671
2019-05-26T05:35:00.000Z,98668
2019-05-26T05:40:00.000Z,98677
2019-05-26T05:46:00.000Z,98675
2019-05-26T05:51:00.000Z,98667
2019-05-26T05:56:00.000Z,98671
2019-05-26T06:01:00.000Z,98688
2019-05-26T06:06:00.000Z,98684
2019-05-26T06:11:00.000Z,98702
2019-05-26T06:16:00.000Z,98692
2019-05-26T06:21:00.000Z,98695
2019-05-26T06:26:00.000Z,98695
2019-05-26T06:31:00.000Z,98700
2019-05-26T06:36:00.000Z,98690
2019-05-26T06:41:00.000Z,98701
2019-05-26T06:46:00.000Z,98703
2019-05-26T06:51:00.000Z,98706
2019-05-26T06:56:00.000Z,98708
2019-05-26T07:01:00.000Z,98708
2019-05-26T07:06:00.000Z,98712
2019-05-26T07:11:00.000Z,98715
2019-05-26T07:16:00.000Z,98711
2019-05-26T07:22:00.000Z,98716
2019-05-26T07:27:00.000Z,98723
2019-05-26T07:32:00.000Z,98714
2019-05-26T07:37:00.000Z,98713
2019-05-26T07:42:00.000Z,98710
2019-05-26T07:47:00.000Z,98708
2019-05-26T07:52:00.000Z,98723
2019-05-26T07:57:00.000Z,98715
2019-05-26T08:02:00.000Z,98719
2019-05-26T08:07:00.000Z,98728
2019-05-26T08:12:00.000Z,98717
2019-05-26T08:17:00.000Z,98720
2019-05-26T08:22:00.000Z,98716
2019-05-26T08:27:00.000Z,98722
2019-05-26T08:32:00.000Z,98727
2019-05-26T08:37:00.000Z,98732
2019-05-26T08:42:00.000Z,98727
2019-05-26T08:47:00.000Z,98730
2019-05-26T08:52:00.000Z,98724
2019-05-26T08:57:00.000Z,98720
2019-05-26T09:02:00.000Z,98723
2019-05-26T09:07:00.000Z,98718
2019-05-26T09:12:00.000Z,98719
2019-05-26T09:18:00.000Z,98714
2019-05-26T09:23:00.000Z,98716
2019-05-26T09:28:00.000Z,98720
2019-05-26T09:33:00.000Z,98712
2019-05-26T09:38:00.000Z,98709
2019-05-26T09:43:00.000Z,98714
2019-05-26T09:48:00.000Z,98709
2019-05-26T09:53:00.000Z,98716
2019-05-26T09:58:00.000Z,98711
2019-05-26T10:03:00.000Z,98703
2019-05-26T10:08:00.000Z,98707
2019-05-26T10:13:00.000Z,98700
2019-05-26T10:18:00.000Z,98698
2019-05-26T10:23:00.000Z,98698
2019-05-26T10:28:00.000Z,98691
2019-05-26T10:33:00.000Z,98687
2019-05-26T10:38:00.000Z,98688
2019-05-26T10:43:00.000Z,98669
2019-05-26T10:48:00.000Z,98676
2019-05-26T10:53:00.000Z,98683
2019-05-26T10:58:00.000Z,98677
2019-05-26T11:03:00.000Z,98674
2019-05-26T11:08:00.000Z,98669
2019-05-26T11:13:00.000Z,98659
2019-05-26T11:19:00.000Z,98649
2019-05-26T11:24:00.000Z,98643
2019-05-26T11:29:00.000Z,98639
2019-05-26T11:34:00.000Z,98630
2019-05-26T11:39:00.000Z,98627
2019-05-26T11:44:00.000Z,98614
2019-05-26T11:49:00.000Z,98616
2019-05-26T11:54:00.000Z,98617
2019-05-26T11:59:00.000Z,98607
2019-05-26T12:04:00.000Z,98605
2019-05-26T12:09:00.000Z,98601
2019-05-26T12:14:00.000Z,98595
2019-05-26T12:19:00.000Z,98606
2019-05-26T12:24:00.000Z,98593
2019-05-26T12:29:00.000Z,98595
2019-05-26T12:34:00.000Z,98591
2019-05-26T12:39:00.000Z,98579
2019-05-26T12:44:00.000Z,98586
2019-05-26T12:49:00.000Z,98574
2019-05-26T12:54:00.000Z,98569
2019-05-26T12:59:00.000Z,98572
2019-05-26T13:04:00.000Z,98569
2019-05-26T13:09:00.000Z,98562
2019-05-26T13:14:00.000Z,98553
2019-05-26T13:20:00.000Z,98553
2019-05-26T13:25:00.000Z,98557
2019-05-26T13:30:00.000Z,98549
2019-05-26T13:35:00.000Z,98541
2019-05-26T13:40:00.000Z,98551
2019-05-26T13:45:00.000Z,98538
2019-05-26T13:50:00.000Z,98543
2019-05-26T13:55:00.000Z,98554
2019-05-26T14:00:00.000Z,98551
2019-05-26T14:05:00.000Z,98542
2019-05-26T14:10:00.000Z,98550
2019-05-26T14:15:00.000Z,98554
2019-05-26T14:20:00.000Z,98558
2019-05-26T14:25:00.000Z,98565
2019-05-26T14:30:00.000Z,98569
2019-05-26T14:35:00.000Z,98566
2019-05-26T14:40:00.000Z,98571
2019-05-26T14:45:00.000Z,98563
2019-05-26T14:50:00.000Z,98566
2019-05-26T14:55:00.000Z,98567
2019-05-26T15:00:00.000Z,98564
2019-05-26T15:05:00.000Z,98565
2019-05-26T15:11:00.000Z,98562
2019-05-26T15:16:00.000Z,98568
2019-05-26T15:21:00.000Z,98566
2019-05-26T15:26:00.000Z,98560
2019-05-26T15:31:00.000Z,98552
2019-05-26T15:36:00.000Z,98554
2019-05-26T15:41:00.000Z,98548
2019-05-26T15:46:00.000Z,98545
2019-05-26T15:51:00.000Z,98552
2019-05-26T15:56:00.000Z,98561
2019-05-26T16:01:00.000Z,98558
2019-05-26T16:06:00.000Z,98553
2019-05-26T16:11:00.000Z,98571
2019-05-26T16:16:00.000Z,98569
2019-05-26T16:21:00.000Z,98565
2019-05-26T16:26:00.000Z,98562
2019-05-26T16:31:00.000Z,98553
2019-05-26T16:36:00.000Z,98553
2019-05-26T16:41:00.000Z,98543
2019-05-26T16:46:00.000Z,98528
2019-05-26T16:51:00.000Z,98532
2019-05-26T16:56:00.000Z,98515
2019-05-26T17:01:00.000Z,98522
2019-05-26T17:06:00.000Z,98519
2019-05-26T17:12:00.000Z,98521
2019-05-26T17:17:00.000Z,98519
2019-05-26T17:22:00.000Z,98519
2019-05-26T17:27:00.000Z,98518
2019-05-26T17:32:00.000Z,98522
2019-05-26T17:37:00.000Z,98521
2019-05-26T17:42:00.000Z,98505
2019-05-26T17:47:00.000Z,98499
2019-05-26T17:52:00.000Z,98502
2019-05-26T17:57:00.000Z,98506
2019-05-26T18:02:00.000Z,98498
2019-05-26T18:07:00.000Z,98505
2019-05-26T18:12:00.000Z,98501
2019-05-26T18:17:00.000Z,98489
2019-05-26T18:22:00.000Z,98493
2019-05-26T18:27:00.000Z,98496
2019-05-26T18:32:00.000Z,98484
2019-05-26T18:37:00.000Z,98488
2019-05-26T18:42:00.000Z,98496
2019-05-26T18:47:00.000Z,98495
2019-05-26T18:53:00.000Z,98504
2019-05-26T18:58:00.000Z,98507
2019-05-26T19:03:00.000Z,98511
2019-05-26T19:08:00.000Z,98511
2019-05-26T19:13:00.000Z,98515
2019-05-26T19:18:00.000Z,98514
2019-05-26T19:23:00.000Z,98515
2019-05-26T19:28:00.000Z,98514
2019-05-26T19:33:00.000Z,98509
2019-05-26T19:38:00.000Z,98514
2019-05-26T19:43:00.000Z,98515
2019-05-26T19:48:00.000Z,98514
2019-05-26T19:53:00.000Z,98506
2019-05-26T19:58:00.000Z,98504
2019-05-26T20:03:00.000Z,98491
2019-05-26T20:08:00.000Z,98486
2019-05-26T20:13:00.000Z,98495
2019-05-26T20:18:00.000Z,98499
2019-05-26T20:23:00.000Z,98501
2019-05-26T20:28:00.000Z,98510
2019-05-26T20:33:00.000Z,98510
2019-05-26T20:38:00.000Z,98513
2019-05-26T20:43:00.000Z,98512
2019-05-26T20:48:00.000Z,98507
2019-05-26T20:53:00.000Z,98508
2019-05-26T20:58:00.000Z,98509
2019-05-26T21:03:00.000Z,98510
2019-05-26T21:08:00.000Z,98518
2019-05-26T21:13:00.000Z,98513
2019-05-26T21:18:00.000Z,98517
2019-05-26T21:23:00.000Z,98500
2019-05-26T21:28:00.000Z,98514
2019-05-26T21:33:00.000Z,98516
2019-05-26T21:38:00.000Z,98513
2019-05-26T21:43:00.000Z,98513
2019-05-26T21:48:00.000Z,98507
2019-05-26T21:53:00.000Z,98507
2019-05-26T21:58:00.000Z,98497
2019-05-26T22:03:00.000Z,98493
2019-05-26T22:08:00.000Z,98485
2019-05-26T22:14:00.000Z,98479
2019-05-26T22:19:00.000Z,98479
2019-05-26T22:24:00.000Z,98467
2019-05-26T22:29:00.000Z,98461
2019-05-26T22:34:00.000Z,98464
2019-05-26T22:39:00.000Z,98449
2019-05-26T22:44:00.000Z,98445
2019-05-26T22:49:00.000Z,98441
2019-05-26T22:54:00.000Z,98441
2019-05-26T22:59:00.000Z,98434
2019-05-26T23:04:00.000Z,98436
2019-05-26T23:09:00.000Z,98425
2019-05-26T23:14:00.000Z,98433
2019-05-26T23:19:00.000Z,98434
2019-05-26T23:24:00.000Z,98430
2019-05-26T23:29:00.000Z,98438
2019-05-26T23:34:00.000Z,98437
2019-05-26T23:39:00.000Z,98420
2019-05-26T23:44:00.000Z,98421
2019-05-26T23:49:00.000Z,98416
2019-05-26T23:54:00.000Z,98416
2019-05-26T23:59:00.000Z,98410
